Vranje, Serbia
Current Conditions -  °F | °C
As of 1:30 AM on Saturday 25 Oct 2014 (Local Time) from LWSK Reporting Station
Moderate Rain Moderate Rain  
Wind Chill: 48°   Ceiling: 4000
Heat Index: 48°   Visibility: 6mi
Dew Point: 43°   Wind: 0mph
Humidity: 82%   Direction: NA
Pressure: 29.91"   Gusts: NA
Location:  42.57°N, 21.91°E
Report Text: LWSK 242330Z 00000KT 9999 RA SCT030 OVC040 09/06 Q1013 NOSIG
Loading
Personal Weather Stations






























Interactive Weather Map
Tropical Storm Tracking
New forecast layout! Learn more

10-Day Weather Forecast

Advertisements
Track Severe Weather on mobile